Eagle Grove, IA

8:18 AM CST on December 12, 2019 (GMT -0600)
North Central Iowa | | Change Station

Elev 1106 ft 42.68 °N, 93.91 °W | Updated 2 minutes ago

Overcast
Overcast
30.6 °F
Feels Like 22 °F
N
10
Wind Variable Wind from SE
Gusts 14.0 mph

Today
High -- | Low -- °F
--% Chance of Precip.
Yesterday
High -- | Low -- °F
Precip. -- in
Pressure 29.94 in
Visibility 10.0 miles
Clouds Scattered Clouds 2900 ft
Overcast 4100 ft
Windchill 22 °F
Dew Point 19 °F
Humidity 62%
Rainfall 0.00 in
Snow Depth Not available.
7:36 AM 4:42 PM
Full, 100% visible
METAR KCAV 121415Z AUTO 17014KT 10SM SCT029 OVC041 M01/M03 A2994 RMK A01
Pressure 29.94 in
Visibility 10.0 miles
Clouds Scattered Clouds 2900 ft
Overcast 4100 ft
Windchill 22 °F
Dew Point 19 °F
Humidity 62%
Rainfall 0.00 in
Snow Depth Not available.
7:36 AM 4:42 PM
Full, 100% visible
METAR KCAV 121415Z AUTO 17014KT 10SM SCT029 OVC041 M01/M03 A2994 RMK A01

Get Severe Weather Alerts

Thanks for signing up!

Be on the lookout for a verification email in your inbox.

You'll start receiving the daily forecast at 6 AM.

×

10-Day Weather Forecast

Almanac

Astronomy

Dec. 12, 2019 Rise Set
Actual Time
Civil Twilight
Nautical Twilight
Astronomical Twilight
Moon
Length of Visible Light
Length of Day
Tomorrow will be .
, % of the Moon is Illuminated

Today's Extremes

State Highs State Lows

Community

WunderPhotos

Category 6

Welcome to Category 6. This is the collective home for Weather Underground's featured writeups by Dr. Jeff Masters (right), Bob Henson (left), Chris Burt, and other regular contributors.

Nearby

Air Quality

  Air Quality AQ Index Pollutant
Not available.

Snow Depth

Station Depth Elevation

Earthquake Activity

City Distance Mag. Time & Date
Minimum magnitude displayed is 2.5.

Coastal Water Temperatures

Place Temperature

Stations

Nearby Weather Stations

Station Location Temp. Windchill Dew Point Humidity Wind Precip. Elev Updated Type
                   

Watches & Warnings

There are currently no watches in effect.